Terminal Aerodrome Forecast
Issued by NWS Topeka, KS

Home | Current Version | Previous Version | Text Only | Print | Product List | Glossary On
Versions: 1 2 3 4 5 6 7 8 9 10 11 12 13 14 15 16 17 18 19 20 21 22 23
000
FTUS43 KTOP 050317 AAA
TAFTOP
TAF AMD
KTOP 050317Z 0503/0524 12006KT 6SM HZ SKC
      TEMPO 0504/0506 5SM HZ
     FM051700 17012G22KT P6SM SCT035=

USA.gov is the U.S. government's official web portal to all federal, state and local government web resources and services.